Time;durP1;ratioP1;P1;durP2;ratioP2;P2;SDS_P1;SDS_P2;PMS_P1;PMS_P2;Temp;Humidity;BMP_temperature;BMP_pressure;BME280_temperature;BME280_humidity;BME280_pressure;Samples;Min_cycle;Max_cycle;Signal;HPM_P1;HPM_P2
2023/08/12 00:00:25;;;;;;;11.13;5.13;;;18.60;99.90;;;;;;5092347;28;20048;-71
2023/08/12 00:02:51;;;;;;;10.18;5.30;;;18.70;99.90;;;;;;5091739;28;20431;-71
2023/08/12 00:05:17;;;;;;;12.90;6.07;;;18.70;99.90;;;;;;5091551;28;20365;-71
2023/08/12 00:07:42;;;;;;;9.68;5.15;;;18.70;99.90;;;;;;5092136;28;20055;-71
2023/08/12 00:10:10;;;;;;;10.48;5.10;;;18.60;99.90;;;;;;5091535;28;20044;-72
2023/08/12 00:12:36;;;;;;;7.93;5.03;;;18.60;99.90;;;;;;5092177;28;20476;-72
2023/08/12 00:15:07;;;;;;;10.23;5.43;;;18.70;99.90;;;;;;5092597;28;20048;-71
2023/08/12 00:17:35;;;;;;;8.63;5.22;;;18.80;99.90;;;;;;5073746;28;20122;-71
2023/08/12 00:20:05;;;;;;;10.95;5.00;;;18.70;99.90;;;;;;5075329;28;20044;-71
2023/08/12 00:22:31;;;;;;;8.63;4.80;;;18.70;99.90;;;;;;5073555;28;20094;-71
2023/08/12 00:24:56;;;;;;;8.60;4.30;;;18.70;99.90;;;;;;5074424;28;20445;-71
2023/08/12 00:27:22;;;;;;;9.02;4.45;;;18.80;99.90;;;;;;5092449;28;20119;-72
2023/08/12 00:29:48;;;;;;;8.18;4.57;;;18.90;99.90;;;;;;5084017;28;20132;-71
2023/08/12 00:32:14;;;;;;;9.38;4.63;;;18.80;99.90;;;;;;5091018;28;20055;-71
2023/08/12 00:34:40;;;;;;;7.13;4.20;;;18.80;99.90;;;;;;5090388;28;20123;-71
2023/08/12 00:37:05;;;;;;;8.98;4.13;;;18.70;99.90;;;;;;5090356;28;20048;-71
2023/08/12 00:39:31;;;;;;;9.52;3.88;;;18.80;99.90;;;;;;5091197;28;20454;-71
2023/08/12 00:41:56;;;;;;;6.72;3.72;;;18.80;99.90;;;;;;5076888;28;20048;-71
2023/08/12 00:44:22;;;;;;;6.50;3.50;;;18.80;99.90;;;;;;5095098;28;20395;-71
2023/08/12 00:46:51;;;;;;;9.20;3.78;;;18.80;99.90;;;;;;5077509;28;20036;-71
2023/08/12 00:49:17;;;;;;;8.05;3.75;;;18.80;99.90;;;;;;5095663;28;20059;-71
2023/08/12 00:51:50;;;;;;;5.75;3.78;;;18.70;99.90;;;;;;5093731;28;20119;-72
2023/08/12 00:54:17;;;;;;;8.93;4.07;;;18.70;99.90;;;;;;5093021;28;20063;-71
2023/08/12 00:56:43;;;;;;;7.72;3.65;;;18.70;99.90;;;;;;5077176;28;20133;-71
2023/08/12 00:59:10;;;;;;;6.80;3.65;;;18.60;99.90;;;;;;5076703;28;20040;-71
2023/08/12 01:01:43;;;;;;;7.85;3.85;;;18.60;99.90;;;;;;5076976;28;20048;-72
2023/08/12 01:04:09;;;;;;;9.52;4.05;;;18.50;99.90;;;;;;5095466;28;20055;-71
2023/08/12 01:06:35;;;;;;;9.70;3.88;;;18.50;99.90;;;;;;5076790;28;20468;-71
2023/08/12 01:09:04;;;;;;;6.22;3.70;;;18.50;99.90;;;;;;5095424;28;20044;-72
2023/08/12 01:11:47;;;;;;;6.50;3.70;;;18.40;99.90;;;;;;5077298;28;20036;-72
2023/08/12 01:14:35;;;;;;;8.43;3.88;;;18.40;99.90;;;;;;5077505;28;20052;-72
2023/08/12 01:17:03;;;;;;;9.77;4.03;;;18.40;99.90;;;;;;5095675;28;20044;-71
2023/08/12 01:19:34;;;;;;;7.18;3.90;;;18.30;99.90;;;;;;5094422;28;20040;-71
2023/08/12 01:22:03;;;;;;;7.80;4.18;;;18.30;99.90;;;;;;5094239;28;20056;-71
2023/08/12 01:24:36;;;;;;;10.00;4.18;;;18.40;99.90;;;;;;5093982;28;20055;-71
2023/08/12 01:27:02;;;;;;;8.00;3.88;;;18.30;99.90;;;;;;5093284;28;20189;-71
2023/08/12 01:29:28;;;;;;;12.65;4.30;;;18.30;99.90;;;;;;5089469;28;20051;-71
2023/08/12 01:32:09;;;;;;;10.60;4.43;;;18.30;99.90;;;;;;5094393;28;20040;-71
2023/08/12 01:35:03;;;;;;;8.23;4.15;;;18.20;99.90;;;;;;5093254;28;20044;-71
2023/08/12 01:37:36;;;;;;;7.43;4.03;;;18.20;99.90;;;;;;5084075;28;20048;-71
2023/08/12 01:40:04;;;;;;;9.52;4.72;;;18.10;99.90;;;;;;5075963;28;20071;-71
2023/08/12 01:42:32;;;;;;;8.13;4.43;;;18.10;99.90;;;;;;5094765;28;20055;-71
2023/08/12 01:45:02;;;;;;;8.73;4.25;;;18.10;99.90;;;;;;5076682;28;20119;-71
2023/08/12 01:47:28;;;;;;;10.10;4.53;;;18.20;99.90;;;;;;5083255;28;20464;-71
2023/08/12 01:49:55;;;;;;;8.50;4.70;;;18.10;99.90;;;;;;5094443;28;20036;-71
2023/08/12 01:52:20;;;;;;;9.02;5.53;;;18.10;99.90;;;;;;5093280;28;20071;-71
2023/08/12 01:54:46;;;;;;;9.02;5.38;;;18.20;99.90;;;;;;5092053;28;20502;-71
2023/08/12 01:57:12;;;;;;;10.10;5.28;;;18.20;99.90;;;;;;5094639;28;20051;-71
2023/08/12 01:59:38;;;;;;;12.20;5.47;;;18.20;99.90;;;;;;5090378;28;20047;-71
2023/08/12 02:02:04;;;;;;;9.85;5.80;;;18.30;99.90;;;;;;5092087;28;20077;-71
2023/08/12 02:04:30;;;;;;;8.63;5.53;;;18.30;99.90;;;;;;5093330;28;20048;-71
2023/08/12 02:06:56;;;;;;;9.07;5.85;;;18.30;99.90;;;;;;5094076;28;20191;-71
2023/08/12 02:09:22;;;;;;;12.45;6.50;;;18.30;99.90;;;;;;5084493;28;20043;-71
2023/08/12 02:11:49;;;;;;;9.63;6.10;;;18.40;99.90;;;;;;5093908;28;20403;-71
2023/08/12 02:14:15;;;;;;;12.10;5.85;;;18.40;99.90;;;;;;5094167;28;20040;-71
2023/08/12 02:16:40;;;;;;;11.05;6.18;;;18.40;99.90;;;;;;5074730;28;20403;-71
2023/08/12 02:19:06;;;;;;;9.07;5.70;;;18.40;99.90;;;;;;5077159;28;20051;-71
2023/08/12 02:21:32;;;;;;;9.90;5.90;;;18.40;99.90;;;;;;5094024;28;20044;-71
2023/08/12 02:23:58;;;;;;;8.38;5.25;;;18.40;99.90;;;;;;5074968;28;20468;-71
2023/08/12 02:26:23;;;;;;;8.75;4.90;;;18.40;99.90;;;;;;5075845;28;20051;-72
2023/08/12 02:28:49;;;;;;;11.18;6.00;;;18.50;99.90;;;;;;5078363;28;20035;-72
2023/08/12 02:31:17;;;;;;;9.23;5.75;;;18.60;99.90;;;;;;5092903;28;20039;-71
2023/08/12 02:33:43;;;;;;;10.43;5.25;;;18.60;99.90;;;;;;5093729;28;20046;-71
2023/08/12 02:36:09;;;;;;;11.18;5.82;;;18.60;99.90;;;;;;5091607;28;20395;-71
2023/08/12 02:38:35;;;;;;;11.13;6.15;;;18.70;99.90;;;;;;5091588;28;20044;-71
2023/08/12 02:41:00;;;;;;;11.05;5.65;;;18.60;99.90;;;;;;5092024;28;20044;-71
2023/08/12 02:43:26;;;;;;;8.60;5.57;;;18.60;99.90;;;;;;5091729;28;20047;-71
2023/08/12 02:45:52;;;;;;;11.27;5.57;;;18.60;99.90;;;;;;5093367;28;20507;-71
2023/08/12 02:48:17;;;;;;;8.07;5.28;;;18.60;99.90;;;;;;5092471;28;20041;-71
2023/08/12 02:50:44;;;;;;;10.77;5.57;;;18.70;99.90;;;;;;5092095;28;20040;-71
2023/08/12 02:53:09;;;;;;;10.95;5.72;;;18.70;99.90;;;;;;5075550;28;20555;-71
2023/08/12 02:55:37;;;;;;;10.48;5.72;;;18.70;99.90;;;;;;5093396;28;20128;-71
2023/08/12 02:58:03;;;;;;;9.00;5.50;;;18.70;99.90;;;;;;5092764;28;20032;-71
2023/08/12 03:00:29;;;;;;;13.63;6.03;;;18.60;99.90;;;;;;5075006;28;20563;-71
2023/08/12 03:02:55;;;;;;;9.43;5.72;;;18.60;99.90;;;;;;5090684;28;20048;-71
2023/08/12 03:05:21;;;;;;;9.23;5.50;;;18.60;99.90;;;;;;5092178;28;20476;-71
2023/08/12 03:07:46;;;;;;;10.15;6.15;;;18.70;99.90;;;;;;5092968;28;20044;-71
2023/08/12 03:10:12;;;;;;;7.97;5.75;;;18.70;99.90;;;;;;5093165;28;20051;-71
2023/08/12 03:12:38;;;;;;;9.95;5.95;;;18.60;99.90;;;;;;5091976;28;20040;-71
2023/08/12 03:15:07;;;;;;;8.60;5.43;;;18.60;99.90;;;;;;5091897;28;20088;-71
2023/08/12 03:17:32;;;;;;;9.68;5.50;;;18.60;99.90;;;;;;5091711;28;20052;-71
2023/08/12 03:20:04;;;;;;;9.93;6.00;;;18.70;99.90;;;;;;5092286;28;20036;-71
2023/08/12 03:22:30;;;;;;;11.18;5.78;;;18.70;99.90;;;;;;5092377;28;20044;-71
2023/08/12 03:24:56;;;;;;;10.30;5.13;;;18.70;99.90;;;;;;5091743;28;20044;-71
2023/08/12 03:27:21;;;;;;;11.18;6.28;;;18.80;99.90;;;;;;5092254;28;20084;-71
2023/08/12 03:29:47;;;;;;;11.02;5.95;;;18.80;99.90;;;;;;5091192;28;20088;-71
2023/08/12 03:32:13;;;;;;;11.43;5.85;;;18.80;99.90;;;;;;5081114;28;20403;-71
2023/08/12 03:34:39;;;;;;;9.85;6.15;;;18.70;99.90;;;;;;5074057;28;20133;-71
2023/08/12 03:37:05;;;;;;;9.98;5.85;;;18.70;99.90;;;;;;5074631;28;20055;-71
2023/08/12 03:39:31;;;;;;;7.97;5.35;;;18.70;99.90;;;;;;5073934;28;20115;-71
2023/08/12 03:41:56;;;;;;;11.05;6.15;;;18.60;99.90;;;;;;5078010;28;20430;-71
2023/08/12 03:44:22;;;;;;;16.10;6.30;;;18.70;99.90;;;;;;5081531;28;20044;-71
2023/08/12 03:46:48;;;;;;;10.77;6.35;;;18.60;99.90;;;;;;5073162;28;20115;-71
2023/08/12 03:49:13;;;;;;;13.57;6.40;;;18.70;99.90;;;;;;5092820;28;20047;-72
2023/08/12 03:51:39;;;;;;;11.73;6.40;;;18.60;99.90;;;;;;5092418;28;20051;-71
2023/08/12 03:54:05;;;;;;;10.63;5.57;;;18.60;99.90;;;;;;5091841;28;20048;-71
2023/08/12 03:56:31;;;;;;;11.77;6.55;;;18.60;99.90;;;;;;5091522;28;20075;-71
2023/08/12 03:58:59;;;;;;;8.95;5.82;;;18.80;99.90;;;;;;5091139;28;20048;-71
2023/08/12 04:01:28;;;;;;;11.13;6.32;;;18.70;99.90;;;;;;5090398;28;20040;-71
2023/08/12 04:03:53;;;;;;;14.00;6.57;;;18.70;99.90;;;;;;5090943;28;20044;-71
2023/08/12 04:06:19;;;;;;;11.52;6.60;;;18.70;99.90;;;;;;5092026;28;20048;-71
2023/08/12 04:08:48;;;;;;;8.95;6.22;;;18.70;99.90;;;;;;5091577;28;20036;-71
2023/08/12 04:11:13;;;;;;;14.25;6.70;;;18.70;99.90;;;;;;5090982;28;20044;-71
2023/08/12 04:13:39;;;;;;;9.40;5.97;;;18.70;99.90;;;;;;5092138;28;20032;-71
2023/08/12 04:16:04;;;;;;;9.98;6.53;;;18.70;99.90;;;;;;5083498;28;20118;-71
2023/08/12 04:18:30;;;;;;;12.75;6.70;;;18.70;99.90;;;;;;5076647;28;20040;-71
2023/08/12 04:20:56;;;;;;;11.65;6.50;;;18.70;99.90;;;;;;5077548;28;20054;-71
2023/08/12 04:23:24;;;;;;;12.18;6.68;;;18.80;99.90;;;;;;5077088;28;20044;-71
2023/08/12 04:25:52;;;;;;;13.18;6.82;;;18.80;99.90;;;;;;5080962;28;20059;-71
2023/08/12 04:28:18;;;;;;;11.48;6.80;;;18.80;99.90;;;;;;5096337;28;20036;-71
2023/08/12 04:30:48;;;;;;;13.40;6.93;;;18.60;99.90;;;;;;5095207;28;20484;-71
2023/08/12 04:33:14;;;;;;;11.10;6.07;;;18.70;99.90;;;;;;5096420;28;20078;-71
2023/08/12 04:35:41;;;;;;;10.88;6.55;;;18.80;99.90;;;;;;5090285;28;20105;-71
2023/08/12 04:38:07;;;;;;;11.43;6.57;;;18.90;99.90;;;;;;5077857;28;20052;-71
2023/08/12 04:40:33;;;;;;;9.00;6.40;;;18.80;99.90;;;;;;5077130;28;20056;-72
2023/08/12 04:42:59;;;;;;;9.02;6.38;;;18.90;99.90;;;;;;5093709;28;20055;-71
2023/08/12 04:45:30;;;;;;;12.05;7.20;;;18.90;99.90;;;;;;5078536;28;20442;-71
2023/08/12 04:47:57;;;;;;;9.65;6.65;;;18.90;99.90;;;;;;5095227;28;20098;-71
2023/08/12 04:50:23;;;;;;;12.52;6.35;;;19.00;99.90;;;;;;5094923;28;20388;-71
2023/08/12 04:52:48;;;;;;;11.05;6.15;;;19.00;99.90;;;;;;5094017;28;20039;-71
2023/08/12 04:55:14;;;;;;;13.20;7.00;;;19.00;99.90;;;;;;5095192;28;20048;-72
2023/08/12 04:57:40;;;;;;;13.15;6.22;;;19.00;99.90;;;;;;5094636;28;20123;-71
2023/08/12 05:00:09;;;;;;;9.63;6.25;;;19.00;99.90;;;;;;5077286;28;20070;-72
2023/08/12 05:02:35;;;;;;;9.52;6.15;;;19.10;99.90;;;;;;5077290;28;20079;-71
2023/08/12 05:05:01;;;;;;;9.70;6.32;;;19.20;99.90;;;;;;5094214;28;20072;-71
2023/08/12 05:07:27;;;;;;;12.40;6.90;;;19.30;99.90;;;;;;5094294;28;20052;-72
2023/08/12 05:09:53;;;;;;;10.85;6.22;;;19.30;99.90;;;;;;5093897;28;20553;-71
2023/08/12 05:12:18;;;;;;;10.70;6.72;;;19.30;99.90;;;;;;5094222;28;20456;-71
2023/08/12 05:14:44;;;;;;;11.10;6.18;;;19.30;99.90;;;;;;5095016;28;20040;-71
2023/08/12 05:17:10;;;;;;;10.85;6.55;;;19.30;99.90;;;;;;5094559;28;20083;-71
2023/08/12 05:19:36;;;;;;;11.65;6.25;;;19.30;99.90;;;;;;5093102;28;20040;-71
2023/08/12 05:22:04;;;;;;;12.73;6.90;;;19.30;99.90;;;;;;5079641;28;20460;-71
2023/08/12 05:24:30;;;;;;;12.05;6.30;;;19.40;99.90;;;;;;5095152;28;20473;-71
2023/08/12 05:26:56;;;;;;;11.90;6.32;;;19.40;99.90;;;;;;5075728;28;20102;-71
2023/08/12 05:29:21;;;;;;;11.23;6.80;;;19.50;99.90;;;;;;5094802;28;20468;-71
2023/08/12 05:31:53;;;;;;;11.90;6.30;;;19.50;99.90;;;;;;5093546;28;20168;-71
2023/08/12 05:34:19;;;;;;;10.48;6.32;;;19.50;99.90;;;;;;5076829;28;20186;-71
2023/08/12 05:36:44;;;;;;;11.52;6.15;;;19.60;99.90;;;;;;5093890;28;20178;-71
2023/08/12 05:39:10;;;;;;;12.40;6.63;;;19.60;99.90;;;;;;5075808;28;20602;-71
2023/08/12 05:41:39;;;;;;;10.32;6.90;;;19.50;99.90;;;;;;5093983;28;20093;-71
2023/08/12 05:44:05;;;;;;;14.48;6.82;;;19.50;99.90;;;;;;5076591;28;20052;-71
2023/08/12 05:46:31;;;;;;;12.50;7.07;;;19.50;99.90;;;;;;5093639;28;20051;-71
2023/08/12 05:48:56;;;;;;;9.93;6.38;;;19.50;99.90;;;;;;5076533;28;20415;-71
2023/08/12 05:51:26;;;;;;;13.65;6.55;;;19.50;99.90;;;;;;5094155;28;20043;-71
2023/08/12 05:53:51;;;;;;;12.38;6.93;;;19.50;99.90;;;;;;5090020;28;20872;-71
2023/08/12 05:56:20;;;;;;;12.43;6.95;;;19.60;99.90;;;;;;5094030;28;20059;-71
2023/08/12 05:58:45;;;;;;;13.07;7.03;;;19.60;99.90;;;;;;5075943;28;20274;-71
2023/08/12 06:01:14;;;;;;;12.30;7.10;;;19.50;99.90;;;;;;5092225;28;20148;-71
2023/08/12 06:03:39;;;;;;;12.75;7.05;;;19.50;99.90;;;;;;5076652;28;20044;-71
2023/08/12 06:06:05;;;;;;;12.13;7.35;;;19.60;99.90;;;;;;5075834;28;20394;-71
2023/08/12 06:08:30;;;;;;;14.45;7.22;;;19.60;99.90;;;;;;5075241;28;20044;-71
2023/08/12 06:10:56;;;;;;;15.93;7.45;;;19.60;99.90;;;;;;5075730;28;20070;-71
2023/08/12 06:13:22;;;;;;;15.13;7.32;;;19.60;99.90;;;;;;5094093;28;20075;-71
2023/08/12 06:15:48;;;;;;;11.15;7.28;;;19.60;99.90;;;;;;5084833;28;20048;-71
2023/08/12 06:18:13;;;;;;;12.10;7.22;;;19.60;99.90;;;;;;5093866;28;20044;-71
2023/08/12 06:20:40;;;;;;;13.10;7.60;;;19.60;99.90;;;;;;5093812;28;20102;-71
2023/08/12 06:23:05;;;;;;;13.80;8.05;;;19.60;99.90;;;;;;5092042;28;20044;-71
2023/08/12 06:25:31;;;;;;;13.00;7.45;;;19.60;99.90;;;;;;5093665;28;20036;-71
2023/08/12 06:27:58;;;;;;;14.90;7.57;;;19.50;99.90;;;;;;5075634;28;20113;-71
2023/08/12 06:30:24;;;;;;;12.40;7.03;;;19.50;99.90;;;;;;5074810;28;20044;-71
2023/08/12 06:32:49;;;;;;;12.32;8.25;;;19.50;99.90;;;;;;5092331;28;20094;-71
2023/08/12 06:35:15;;;;;;;15.02;8.07;;;19.50;99.90;;;;;;5075305;28;20063;-71
2023/08/12 06:37:42;;;;;;;12.05;7.80;;;19.60;99.90;;;;;;5092592;28;20048;-71
2023/08/12 06:40:08;;;;;;;16.52;8.57;;;19.50;99.90;;;;;;5093212;28;20594;-71
2023/08/12 06:42:33;;;;;;;15.80;9.13;;;19.60;99.90;;;;;;5081094;28;20447;-71
2023/08/12 06:45:03;;;;;;;12.48;8.40;;;19.80;99.90;;;;;;5092188;28;20072;-71
2023/08/12 06:47:29;;;;;;;18.23;9.25;;;19.80;99.90;;;;;;5093347;28;20044;-71
2023/08/12 06:49:55;;;;;;;16.55;9.00;;;19.90;99.90;;;;;;5074401;28;20391;-71
2023/08/12 06:52:21;;;;;;;15.60;9.30;;;19.90;99.90;;;;;;5076249;28;20040;-71
2023/08/12 06:54:47;;;;;;;15.20;9.38;;;19.80;99.90;;;;;;5092997;28;20556;-71
2023/08/12 06:57:13;;;;;;;14.25;9.02;;;19.90;99.90;;;;;;5092597;28;20085;-71
2023/08/12 06:59:38;;;;;;;16.05;9.30;;;19.90;99.90;;;;;;5092856;28;20036;-71
2023/08/12 07:02:07;;;;;;;15.27;9.45;;;19.90;99.90;;;;;;5092105;28;20047;-71
2023/08/12 07:04:33;;;;;;;16.00;9.50;;;20.00;99.90;;;;;;5090729;28;20085;-71
2023/08/12 07:06:59;;;;;;;12.20;8.43;;;20.00;99.90;;;;;;5091455;28;20043;-71
2023/08/12 07:09:25;;;;;;;15.57;9.75;;;20.10;99.90;;;;;;5076120;28;20105;-71
2023/08/12 07:11:51;;;;;;;17.27;9.70;;;20.20;99.90;;;;;;5092231;28;20418;-71
2023/08/12 07:14:16;;;;;;;19.75;9.48;;;20.10;99.90;;;;;;5075195;28;20048;-71
2023/08/12 07:16:42;;;;;;;17.05;9.63;;;20.20;99.90;;;;;;5092100;28;20051;-71
2023/08/12 07:19:07;;;;;;;16.63;9.27;;;20.20;99.90;;;;;;5091030;28;20036;-71
2023/08/12 07:21:33;;;;;;;17.10;10.27;;;20.20;99.90;;;;;;5092868;28;20044;-71
2023/08/12 07:23:59;;;;;;;12.98;8.98;;;20.10;99.90;;;;;;5093066;28;20471;-71
2023/08/12 07:26:24;;;;;;;18.80;10.15;;;20.10;99.90;;;;;;5090869;28;20396;-71
2023/08/12 07:28:50;;;;;;;16.50;9.68;;;20.10;99.90;;;;;;5088895;28;20385;-71
2023/08/12 07:31:16;;;;;;;17.35;9.77;;;20.10;99.90;;;;;;5091378;28;20047;-71
2023/08/12 07:33:41;;;;;;;16.88;10.02;;;20.10;99.90;;;;;;5091826;28;20043;-71
2023/08/12 07:36:10;;;;;;;15.82;10.45;;;20.00;99.90;;;;;;5091162;28;20063;-71
2023/08/12 07:38:36;;;;;;;16.75;10.18;;;20.00;99.90;;;;;;5088297;28;20051;-71
2023/08/12 07:41:02;;;;;;;16.90;9.70;;;20.00;99.90;;;;;;5092860;28;20066;-71
2023/08/12 07:43:27;;;;;;;19.20;10.93;;;20.00;99.90;;;;;;5092903;28;20468;-71
2023/08/12 07:45:53;;;;;;;14.05;9.80;;;19.90;99.90;;;;;;5091177;28;20480;-71
2023/08/12 07:48:20;;;;;;;16.65;11.02;;;20.00;99.90;;;;;;5074772;28;20036;-71
2023/08/12 07:50:48;;;;;;;17.90;11.43;;;20.00;99.90;;;;;;5091112;28;20076;-71
2023/08/12 07:53:15;;;;;;;18.27;11.05;;;20.00;99.90;;;;;;5095874;28;20044;-71
2023/08/12 07:55:42;;;;;;;17.70;11.50;;;20.00;99.90;;;;;;5081062;28;20055;-71
2023/08/12 07:58:08;;;;;;;19.10;11.00;;;20.00;99.90;;;;;;5095481;28;20048;-71
2023/08/12 08:00:33;;;;;;;22.85;11.57;;;20.00;99.90;;;;;;5094484;28;20387;-71
2023/08/12 08:02:59;;;;;;;19.02;11.48;;;19.90;99.90;;;;;;5093286;28;20475;-71
2023/08/12 08:05:25;;;;;;;19.65;12.55;;;19.90;99.90;;;;;;5095326;28;20042;-71
2023/08/12 08:07:56;;;;;;;17.17;11.77;;;19.90;99.90;;;;;;5094226;28;20048;-71
2023/08/12 08:10:22;;;;;;;16.23;11.43;;;19.90;99.90;;;;;;5094949;28;20048;-71
2023/08/12 08:12:48;;;;;;;20.52;11.75;;;19.90;99.90;;;;;;5096101;28;20391;-71
2023/08/12 08:15:13;;;;;;;19.90;11.75;;;20.00;99.90;;;;;;5077432;28;20043;-70
2023/08/12 08:17:39;;;;;;;21.48;11.25;;;19.90;99.90;;;;;;5095693;28;20040;-71
2023/08/12 08:20:06;;;;;;;17.85;12.27;;;19.90;99.90;;;;;;5095870;28;20044;-71
2023/08/12 08:22:32;;;;;;;21.35;12.48;;;19.90;99.90;;;;;;5094600;28;20388;-70
2023/08/12 08:24:57;;;;;;;19.63;11.57;;;19.90;99.90;;;;;;5096123;28;20083;-71
2023/08/12 08:27:23;;;;;;;19.27;12.52;;;19.90;99.90;;;;;;5095965;28;20482;-71
2023/08/12 08:29:49;;;;;;;20.63;12.65;;;19.90;99.90;;;;;;5077356;28;20557;-71
2023/08/12 08:32:14;;;;;;;20.20;12.48;;;19.90;99.90;;;;;;5091513;28;20119;-71
2023/08/12 08:34:40;;;;;;;19.95;12.13;;;19.80;99.90;;;;;;5076911;28;20038;-71
2023/08/12 08:37:06;;;;;;;20.52;12.20;;;19.90;99.90;;;;;;5096126;28;20052;-71
2023/08/12 08:39:31;;;;;;;21.17;12.80;;;19.90;99.90;;;;;;5084158;28;20032;-70
2023/08/12 08:41:58;;;;;;;16.98;11.95;;;20.00;99.90;;;;;;5094376;28;20044;-71
2023/08/12 08:44:30;;;;;;;20.73;12.98;;;20.00;99.90;;;;;;5095940;28;20082;-71
2023/08/12 08:46:57;;;;;;;19.98;13.73;;;20.00;99.90;;;;;;5095676;28;20403;-71
2023/08/12 08:49:25;;;;;;;17.58;12.88;;;20.00;99.90;;;;;;5087107;28;20070;-70
2023/08/12 08:51:52;;;;;;;18.25;12.77;;;20.00;99.90;;;;;;5095637;28;20115;-71
2023/08/12 08:54:19;;;;;;;21.52;13.30;;;20.00;99.90;;;;;;5095707;28;20127;-70
2023/08/12 08:56:45;;;;;;;19.75;13.05;;;20.00;99.90;;;;;;5075719;28;20059;-70
2023/08/12 08:59:10;;;;;;;21.52;12.93;;;20.00;99.90;;;;;;5095146;28;20032;-70
2023/08/12 09:01:37;;;;;;;19.63;13.88;;;20.10;99.90;;;;;;5094034;28;20040;-70
2023/08/12 09:04:05;;;;;;;21.25;14.13;;;20.10;99.90;;;;;;5092983;28;20079;-70
2023/08/12 09:06:33;;;;;;;19.35;13.45;;;20.10;99.90;;;;;;5095584;28;20044;-70
2023/08/12 09:09:00;;;;;;;20.45;13.70;;;20.10;99.90;;;;;;5092738;28;20044;-70
2023/08/12 09:11:26;;;;;;;25.73;14.32;;;20.00;99.90;;;;;;5093586;28;20048;-70
2023/08/12 09:13:52;;;;;;;25.25;14.60;;;20.00;99.90;;;;;;5091425;28;20044;-70
2023/08/12 09:16:18;;;;;;;20.35;13.82;;;19.90;99.90;;;;;;5077067;28;20039;-70
2023/08/12 09:18:44;;;;;;;22.02;14.52;;;19.80;99.90;;;;;;5075858;28;20123;-70
2023/08/12 09:21:10;;;;;;;22.42;14.80;;;19.90;99.90;;;;;;5077065;28;20043;-69
2023/08/12 09:23:38;;;;;;;22.33;15.23;;;19.80;99.90;;;;;;5094310;28;20594;-71
2023/08/12 09:26:15;;;;;;;23.20;15.75;;;19.70;99.90;;;;;;5094309;28;20058;-71
2023/08/12 09:28:42;;;;;;;15.75;9.80;;;19.70;99.90;;;;;;5095037;28;20055;-71
2023/08/12 09:31:21;;;;;;;13.07;8.18;;;19.50;99.90;;;;;;5092977;28;20503;-70
2023/08/12 09:33:50;;;;;;;14.50;11.13;;;19.40;99.90;;;;;;5094337;28;20047;-71
2023/08/12 09:36:17;;;;;;;15.43;9.23;;;19.30;99.90;;;;;;5094377;28;20488;-71
2023/08/12 09:38:43;;;;;;;15.23;9.77;;;19.30;99.90;;;;;;5093792;28;20096;-72
2023/08/12 09:41:15;;;;;;;10.73;6.80;;;19.30;99.90;;;;;;5076637;28;20048;-71
2023/08/12 09:43:45;;;;;;;9.23;5.68;;;19.20;99.90;;;;;;5094176;28;20043;-70
2023/08/12 09:46:15;;;;;;;8.80;5.20;;;19.10;99.90;;;;;;5093605;28;20039;-71
2023/08/12 09:48:40;;;;;;;7.60;4.18;;;19.00;99.90;;;;;;5094121;28;20059;-70
2023/08/12 09:51:07;;;;;;;6.68;3.28;;;18.90;99.90;;;;;;5076804;28;20402;-70
2023/08/12 09:53:33;;;;;;;7.93;4.00;;;18.90;99.90;;;;;;5074861;28;20461;-70
2023/08/12 09:56:05;;;;;;;7.65;3.78;;;18.90;99.90;;;;;;5094390;28;20055;-70
2023/08/12 09:58:33;;;;;;;5.63;3.00;;;18.80;99.90;;;;;;5094496;28;20069;-70
2023/08/12 10:00:59;;;;;;;8.15;4.15;;;18.80;99.90;;;;;;5093542;28;20427;-70
2023/08/12 10:03:25;;;;;;;7.30;3.10;;;18.80;99.90;;;;;;5075736;28;20028;-71
2023/08/12 10:05:52;;;;;;;7.18;2.88;;;18.80;99.90;;;;;;5094020;28;20059;-70
2023/08/12 10:08:18;;;;;;;6.03;2.53;;;18.70;99.90;;;;;;5075458;28;20127;-71
2023/08/12 10:10:44;;;;;;;4.65;2.15;;;18.70;99.90;;;;;;5094063;28;20097;-70
2023/08/12 10:13:11;;;;;;;5.60;2.05;;;18.60;99.90;;;;;;5075441;28;20090;-70
2023/08/12 10:15:37;;;;;;;5.50;2.17;;;18.40;99.90;;;;;;5089101;28;20051;-71
2023/08/12 10:18:05;;;;;;;6.30;2.28;;;18.40;99.90;;;;;;5093878;28;20697;-70
2023/08/12 10:20:32;;;;;;;6.22;2.40;;;18.30;99.90;;;;;;5091851;28;20205;-70
2023/08/12 10:23:00;;;;;;;7.57;2.33;;;18.40;99.90;;;;;;5092891;28;20044;-71
2023/08/12 10:25:32;;;;;;;5.70;2.20;;;18.50;99.90;;;;;;5081288;28;20058;-71
2023/08/12 10:27:57;;;;;;;6.90;2.42;;;18.60;99.90;;;;;;5075061;28;20044;-71
2023/08/12 10:30:23;;;;;;;5.72;2.10;;;18.70;99.90;;;;;;5075779;28;20063;-71
2023/08/12 10:32:49;;;;;;;8.55;2.42;;;18.60;99.90;;;;;;5075515;28;20085;-71
2023/08/12 10:35:15;;;;;;;6.55;2.10;;;18.80;99.90;;;;;;5091936;28;20059;-71
2023/08/12 10:37:41;;;;;;;8.23;2.05;;;18.80;99.90;;;;;;5074877;28;20410;-71
2023/08/12 10:40:22;;;;;;;5.15;2.40;;;18.80;99.90;;;;;;5092284;28;20085;-71
2023/08/12 10:42:51;;;;;;;6.35;2.28;;;18.70;99.90;;;;;;5075303;28;20369;-71
2023/08/12 10:45:18;;;;;;;7.82;2.55;;;18.70;99.90;;;;;;5075229;28;20134;-72
2023/08/12 10:48:00;;;;;;;9.50;2.72;;;18.70;99.90;;;;;;5075168;28;20542;-72
2023/08/12 10:50:26;;;;;;;7.80;2.55;;;18.70;99.90;;;;;;5074143;28;20442;-71
2023/08/12 10:52:53;;;;;;;7.68;2.80;;;18.80;99.90;;;;;;5093087;28;20048;-71
2023/08/12 10:55:23;;;;;;;8.50;2.45;;;18.80;99.90;;;;;;5091700;28;20476;-71
2023/08/12 10:57:51;;;;;;;9.77;2.45;;;18.80;99.90;;;;;;5091692;28;20075;-72
2023/08/12 11:00:21;;;;;;;6.60;2.40;;;18.80;99.90;;;;;;5092129;28;20066;-71
2023/08/12 11:02:52;;;;;;;7.95;2.30;;;18.70;99.90;;;;;;5090575;28;20135;-71
2023/08/12 11:05:19;;;;;;;8.55;2.78;;;18.70;99.90;;;;;;5093409;28;20048;-71
2023/08/12 11:07:55;;;;;;;7.03;2.05;;;18.70;99.90;;;;;;5091610;28;20075;-70
2023/08/12 11:10:26;;;;;;;7.10;2.58;;;18.80;99.90;;;;;;5092492;28;20058;-71
2023/08/12 11:12:52;;;;;;;6.80;2.03;;;18.80;99.90;;;;;;5084784;28;20151;-71
2023/08/12 11:15:28;;;;;;;7.13;2.17;;;18.90;99.90;;;;;;5092114;28;20139;-71
2023/08/12 11:17:54;;;;;;;6.05;2.20;;;19.00;99.90;;;;;;5090805;28;20496;-71
2023/08/12 11:20:21;;;;;;;4.47;1.95;;;19.10;99.90;;;;;;5091344;28;20074;-71
2023/08/12 11:22:47;;;;;;;5.07;1.80;;;19.10;99.90;;;;;;5074728;28;20127;-71
2023/08/12 11:25:14;;;;;;;5.07;2.20;;;19.20;99.90;;;;;;5073930;28;20575;-71
2023/08/12 11:27:46;;;;;;;6.03;2.03;;;19.20;99.90;;;;;;5092088;28;20047;-71
2023/08/12 11:30:15;;;;;;;3.95;1.67;;;19.20;99.90;;;;;;5092822;28;20044;-71
2023/08/12 11:32:46;;;;;;;5.70;1.75;;;19.10;99.90;;;;;;5086527;28;20040;-71
2023/08/12 11:35:15;;;;;;;5.45;1.80;;;19.10;99.90;;;;;;5092538;28;20052;-71
2023/08/12 11:37:45;;;;;;;4.85;1.92;;;19.20;99.90;;;;;;5089920;28;20048;-71
2023/08/12 11:40:14;;;;;;;5.60;2.00;;;19.30;99.90;;;;;;5092704;28;20032;-71
2023/08/12 11:42:42;;;;;;;6.10;2.00;;;19.20;99.90;;;;;;5077679;28;20048;-71
2023/08/12 11:45:08;;;;;;;7.07;2.25;;;19.30;99.90;;;;;;5091830;28;20040;-71
2023/08/12 11:47:39;;;;;;;4.75;1.58;;;19.40;99.90;;;;;;5075154;28;20040;-71
2023/08/12 11:50:07;;;;;;;8.52;2.20;;;19.70;99.90;;;;;;5092736;28;20376;-71
2023/08/12 11:52:35;;;;;;;6.78;1.92;;;19.80;99.90;;;;;;5074647;28;20105;-71
2023/08/12 11:55:01;;;;;;;6.13;2.03;;;20.10;99.90;;;;;;5092601;28;20044;-71
2023/08/12 11:57:28;;;;;;;7.53;2.40;;;20.60;99.90;;;;;;5074204;28;20244;-71
2023/08/12 12:00:05;;;;;;;7.28;2.58;;;21.10;99.90;;;;;;5071096;28;20036;-72
2023/08/12 12:02:30;;;;;;;8.38;2.78;;;21.60;99.90;;;;;;5090815;28;20075;-71
2023/08/12 12:04:59;;;;;;;7.65;2.35;;;22.20;99.90;;;;;;5088958;28;20082;-71
2023/08/12 12:07:25;;;;;;;9.35;3.53;;;22.60;99.90;;;;;;5089854;28;20071;-71
2023/08/12 12:09:54;;;;;;;8.02;2.53;;;23.00;99.90;;;;;;5088483;28;20076;-71
2023/08/12 12:12:24;;;;;;;7.78;2.83;;;23.40;99.90;;;;;;5090731;28;20048;-71
2023/08/12 12:14:54;;;;;;;8.80;2.80;;;23.40;99.90;;;;;;5073395;28;20395;-71
2023/08/12 12:17:23;;;;;;;6.72;2.63;;;23.30;99.90;;;;;;5092387;28;20052;-71
2023/08/12 12:19:56;;;;;;;7.10;2.80;;;23.50;99.90;;;;;;5073024;28;20040;-72
2023/08/12 12:22:28;;;;;;;8.00;2.88;;;23.80;99.90;;;;;;5074424;28;20040;-72
2023/08/12 12:24:54;;;;;;;9.80;3.17;;;24.00;99.90;;;;;;5074083;28;20048;-72
2023/08/12 12:27:20;;;;;;;8.73;2.83;;;24.20;99.90;;;;;;5073360;28;20181;-72
2023/08/12 12:29:45;;;;;;;7.80;3.00;;;24.50;99.90;;;;;;5073507;28;20044;-72
2023/08/12 12:32:11;;;;;;;6.95;2.67;;;24.90;99.90;;;;;;5092362;28;20097;-71
2023/08/12 12:34:38;;;;;;;8.90;3.00;;;24.90;99.90;;;;;;5090944;28;20051;-72
2023/08/12 12:37:03;;;;;;;11.65;3.22;;;25.10;99.90;;;;;;5091903;28;20063;-72
2023/08/12 12:39:29;;;;;;;10.43;2.92;;;25.30;99.90;;;;;;5093139;28;20403;-71